Time;durP1;ratioP1;P1;durP2;ratioP2;P2;SDS_P1;SDS_P2;PMS_P1;PMS_P2;Temp;Humidity;BMP_temperature;BMP_pressure;BME280_temperature;BME280_humidity;BME280_pressure;Samples;Min_cycle;Max_cycle;Signal;HPM_P1;HPM_P2
2021/04/25 00:00:07;;;;;;;13.90;8.80;;;;;;;9.73;71.00;99332.31;6245863;23;20314;-77
2021/04/25 00:02:32;;;;;;;11.82;8.05;;;;;;;9.75;70.80;99331.00;6219570;23;20111;-76
2021/04/25 00:04:58;;;;;;;11.85;8.48;;;;;;;9.76;70.63;99339.78;6219124;23;20079;-77
2021/04/25 00:07:23;;;;;;;14.50;8.82;;;;;;;9.78;70.62;99337.69;6246718;23;20035;-77
2021/04/25 00:09:49;;;;;;;11.13;8.25;;;;;;;9.78;70.95;99345.69;6246266;23;20038;-77
2021/04/25 00:12:14;;;;;;;12.82;8.55;;;;;;;9.77;70.35;99342.19;6246066;23;20000;-77
2021/04/25 00:14:40;;;;;;;14.25;9.90;;;;;;;9.78;70.69;99348.38;6219180;23;19996;-77
2021/04/25 00:17:05;;;;;;;14.88;10.13;;;;;;;9.77;70.77;99347.53;6246139;23;20000;-76
2021/04/25 00:19:31;;;;;;;15.05;8.65;;;;;;;9.77;70.74;99346.75;6246390;23;20034;-76
2021/04/25 00:21:56;;;;;;;12.98;9.10;;;;;;;9.71;71.01;99343.25;6246318;23;20008;-74
2021/04/25 00:24:22;;;;;;;17.25;9.30;;;;;;;9.67;70.87;99331.50;6246015;23;20004;-74
2021/04/25 00:26:47;;;;;;;13.45;8.18;;;;;;;9.67;70.87;99338.72;6246147;23;19996;-73
2021/04/25 00:29:13;;;;;;;14.65;8.82;;;;;;;9.66;71.06;99345.13;6245821;23;20007;-73
2021/04/25 00:31:39;;;;;;;16.42;9.68;;;;;;;9.64;70.88;99341.91;6246111;23;20056;-76
2021/04/25 00:34:05;;;;;;;16.27;9.27;;;;;;;9.61;71.07;99335.22;6246114;23;20040;-80
2021/04/25 00:36:31;;;;;;;14.98;10.40;;;;;;;9.59;71.36;99338.16;6219416;23;20011;-79
2021/04/25 00:38:56;;;;;;;14.00;8.80;;;;;;;9.64;71.38;99347.25;6246234;23;20433;-76
2021/04/25 00:41:22;;;;;;;12.35;9.07;;;;;;;9.66;70.66;99339.78;6245852;23;20001;-78
2021/04/25 00:43:47;;;;;;;13.20;9.02;;;;;;;9.66;71.17;99334.44;6244842;23;20000;-75
2021/04/25 00:46:13;;;;;;;18.90;9.18;;;;;;;9.67;70.69;99338.72;6245858;23;20000;-75
2021/04/25 00:48:39;;;;;;;15.45;9.57;;;;;;;9.67;70.84;99336.84;6246261;23;20000;-76
2021/04/25 00:51:09;;;;;;;13.55;8.50;;;;;;;9.67;70.80;99330.72;6245855;23;20000;-76
2021/04/25 00:53:34;;;;;;;16.88;9.13;;;;;;;9.69;70.62;99341.91;6245144;23;19996;-76
2021/04/25 00:56:00;;;;;;;15.75;9.23;;;;;;;9.66;70.74;99327.22;6244010;23;20071;-76
2021/04/25 00:58:26;;;;;;;14.40;8.68;;;;;;;9.63;70.41;99325.09;6244264;23;20020;-78
2021/04/25 01:00:51;;;;;;;23.60;10.43;;;;;;;9.59;70.78;99321.31;6244233;23;20071;-78
2021/04/25 01:03:23;;;;;;;18.60;10.77;;;;;;;9.60;70.62;99325.59;6217712;23;19996;-77
2021/04/25 01:05:48;;;;;;;18.13;9.95;;;;;;;9.58;70.68;99333.06;6217641;23;20008;-77
2021/04/25 01:08:14;;;;;;;14.13;9.32;;;;;;;9.55;70.81;99328.25;6244202;23;20417;-76
2021/04/25 01:10:39;;;;;;;14.15;9.27;;;;;;;9.51;71.24;99319.97;6244856;23;20006;-79
2021/04/25 01:13:05;;;;;;;16.13;10.32;;;;;;;9.51;71.16;99327.16;6242774;23;20337;-80
2021/04/25 01:15:31;;;;;;;19.05;9.43;;;;;;;9.48;71.35;99330.38;6242403;23;20421;-79
2021/04/25 01:17:56;;;;;;;14.88;10.18;;;;;;;9.49;71.10;99334.66;6217745;23;19996;-78
2021/04/25 01:20:22;;;;;;;15.73;10.32;;;;;;;9.47;71.67;99323.41;6217576;23;20018;-77
2021/04/25 01:22:48;;;;;;;20.63;10.13;;;;;;;9.45;71.53;99323.69;6244369;23;20003;-75
2021/04/25 01:25:18;;;;;;;20.02;10.27;;;;;;;9.35;71.67;99316.44;6243833;23;20000;-75
2021/04/25 01:27:43;;;;;;;32.97;13.63;;;;;;;9.36;72.43;99314.56;6244344;23;19996;-75
2021/04/25 01:30:12;;;;;;;36.78;15.57;;;;;;;9.26;73.08;99312.66;6243792;23;20007;-76
2021/04/25 01:32:42;;;;;;;39.63;16.50;;;;;;;9.11;73.86;99306.19;6244524;23;20007;-75
2021/04/25 01:35:11;;;;;;;43.72;15.40;;;;;;;9.01;74.48;99303.47;6217171;23;20011;-76
2021/04/25 01:37:36;;;;;;;39.65;15.35;;;;;;;8.96;74.91;99311.47;6244829;23;20004;-77
2021/04/25 01:40:04;;;;;;;40.55;16.05;;;;;;;8.88;74.90;99302.06;6244237;23;20004;-76
2021/04/25 01:42:30;;;;;;;39.92;16.83;;;;;;;8.80;76.00;99303.38;6244348;23;20448;-74
2021/04/25 01:44:55;;;;;;;33.38;15.13;;;;;;;8.74;75.83;99304.41;6243880;23;20000;-76
2021/04/25 01:47:21;;;;;;;40.78;16.25;;;;;;;8.69;76.22;99295.56;6244003;23;20015;-74
2021/04/25 01:49:46;;;;;;;38.80;15.23;;;;;;;8.67;76.15;99295.81;6244707;23;19996;-76
2021/04/25 01:52:11;;;;;;;40.30;16.63;;;;;;;8.67;76.73;99303.00;6244219;23;20417;-75
2021/04/25 01:54:37;;;;;;;38.03;16.73;;;;;;;8.61;77.30;99307.50;6243835;23;20447;-77
2021/04/25 01:57:03;;;;;;;41.78;16.23;;;;;;;8.59;76.94;99312.28;6243794;23;20062;-75
2021/04/25 01:59:28;;;;;;;49.25;17.27;;;;;;;8.61;77.26;99320.84;6244236;23;20004;-76
2021/04/25 02:01:54;;;;;;;41.85;15.82;;;;;;;8.66;77.07;99312.88;6244153;23;20078;-77
2021/04/25 02:04:21;;;;;;;53.10;19.00;;;;;;;8.63;77.64;99311.53;6243512;23;20337;-75
2021/04/25 02:06:46;;;;;;;48.92;18.58;;;;;;;8.62;77.91;99309.91;6243739;23;20000;-74
2021/04/25 02:09:12;;;;;;;54.83;18.98;;;;;;;8.66;77.75;99318.19;6216761;23;20083;-75
2021/04/25 02:11:38;;;;;;;52.78;19.73;;;;;;;8.63;77.96;99311.53;6244125;23;20002;-75
2021/04/25 02:14:07;;;;;;;58.00;19.17;;;;;;;8.67;78.26;99309.16;6244083;23;20008;-76
2021/04/25 02:16:34;;;;;;;55.25;18.25;;;;;;;8.69;77.73;99312.38;6244019;23;20006;-75
2021/04/25 02:19:01;;;;;;;53.45;18.63;;;;;;;8.73;78.24;99313.44;6217327;23;19996;-74
2021/04/25 02:21:27;;;;;;;49.65;16.90;;;;;;;8.74;77.84;99309.72;6243686;23;20003;-74
2021/04/25 02:23:54;;;;;;;37.92;16.60;;;;;;;8.79;78.38;99312.41;6244075;23;19996;-75
2021/04/25 02:26:20;;;;;;;46.08;17.48;;;;;;;8.80;78.17;99305.22;6243716;23;20075;-77
2021/04/25 02:28:45;;;;;;;49.50;17.75;;;;;;;8.78;78.34;99310.81;6244128;23;20028;-75
2021/04/25 02:31:11;;;;;;;45.70;18.38;;;;;;;8.82;78.18;99311.09;6243559;23;20028;-75
2021/04/25 02:33:36;;;;;;;59.15;18.63;;;;;;;8.83;78.00;99315.38;6242287;23;20016;-75
2021/04/25 02:36:04;;;;;;;55.97;20.42;;;;;;;8.84;78.13;99311.66;6243466;23;20007;-76
2021/04/25 02:38:29;;;;;;;67.32;23.02;;;;;;;8.86;78.04;99320.22;6243275;23;20000;-75
2021/04/25 02:40:54;;;;;;;68.72;22.40;;;;;;;8.91;78.08;99311.41;6243681;23;20001;-77
2021/04/25 02:43:20;;;;;;;72.50;25.13;;;;;;;8.95;78.11;99312.53;6244942;23;20000;-76
2021/04/25 02:45:45;;;;;;;67.05;24.65;;;;;;;8.93;77.84;99311.97;6244864;23;19999;-78
2021/04/25 02:48:11;;;;;;;81.70;26.65;;;;;;;8.93;78.21;99306.63;6244705;23;20007;-76
2021/04/25 02:50:41;;;;;;;73.00;25.73;;;;;;;8.92;77.96;99305.84;6244835;23;19996;-77
2021/04/25 02:53:08;;;;;;;80.40;24.40;;;;;;;8.94;78.29;99305.56;6244444;23;20065;-75
2021/04/25 02:55:35;;;;;;;71.65;24.33;;;;;;;8.95;78.43;99307.19;6243930;23;20000;-76
2021/04/25 02:58:01;;;;;;;72.00;24.45;;;;;;;8.88;78.48;99303.94;6245136;23;20488;-77
2021/04/25 03:00:28;;;;;;;81.80;24.20;;;;;;;8.87;78.24;99303.13;6244859;23;20042;-76
2021/04/25 03:02:54;;;;;;;84.78;25.38;;;;;;;8.84;78.51;99308.16;6244852;23;19996;-77
2021/04/25 03:05:20;;;;;;;78.43;23.40;;;;;;;8.82;78.79;99303.09;6244709;23;20065;-78
2021/04/25 03:07:46;;;;;;;80.78;24.38;;;;;;;8.77;78.83;99303.88;6246985;23;20482;-78
2021/04/25 03:10:14;;;;;;;91.82;28.48;;;;;;;8.81;78.98;99314.81;6247175;23;20048;-77
2021/04/25 03:12:39;;;;;;;86.55;26.75;;;;;;;8.79;79.12;99309.75;6247331;23;20003;-77
2021/04/25 03:15:07;;;;;;;92.05;24.63;;;;;;;8.81;78.85;99310.31;6216902;23;20004;-75
2021/04/25 03:17:33;;;;;;;94.40;26.02;;;;;;;8.84;79.43;99313.50;6242549;23;20007;-75
2021/04/25 03:19:59;;;;;;;87.97;25.38;;;;;;;8.83;79.12;99311.91;6243924;23;20071;-76
2021/04/25 03:22:24;;;;;;;74.13;26.70;;;;;;;8.87;79.23;99315.66;6244248;23;20440;-77
2021/04/25 03:24:49;;;;;;;97.35;27.88;;;;;;;8.84;79.01;99319.66;6245713;23;20011;-76
2021/04/25 03:27:15;;;;;;;91.95;25.63;;;;;;;8.88;78.87;99326.06;6245275;23;20126;-77
2021/04/25 03:29:41;;;;;;;89.28;26.67;;;;;;;8.93;78.83;99325.31;6243191;23;19996;-77
2021/04/25 03:32:06;;;;;;;79.63;25.50;;;;;;;8.91;78.88;99319.41;6246021;23;20000;-78
2021/04/25 03:34:32;;;;;;;67.35;23.45;;;;;;;8.95;78.89;99331.97;6245675;23;20011;-77
2021/04/25 03:37:12;;;;;;;72.07;23.13;;;;;;;9.00;78.84;99328.53;6244948;23;20000;-86
2021/04/25 03:39:38;;;;;;;61.47;21.30;;;;;;;9.00;78.71;99328.53;6217918;23;20095;-80
2021/04/25 03:42:04;;;;;;;59.40;21.67;;;;;;;8.99;78.52;99321.59;6217270;23;20030;-76
2021/04/25 03:44:29;;;;;;;57.45;21.83;;;;;;;9.02;78.68;99329.09;6216389;23;20070;-76
2021/04/25 03:46:56;;;;;;;56.92;21.40;;;;;;;9.00;78.49;99330.44;6243502;23;20003;-79
2021/04/25 03:49:22;;;;;;;53.72;21.48;;;;;;;8.99;78.29;99329.59;6243591;23;20004;-75
2021/04/25 03:51:49;;;;;;;45.67;19.27;;;;;;;9.00;78.35;99336.56;6245353;23;19996;-76
2021/04/25 03:54:15;;;;;;;47.60;19.83;;;;;;;8.93;78.67;99336.75;6245056;23;20000;-76
2021/04/25 03:56:41;;;;;;;41.35;18.92;;;;;;;8.95;78.89;99341.88;6243529;23;20011;-76
2021/04/25 03:59:07;;;;;;;45.83;21.15;;;;;;;8.96;78.78;99341.59;6243540;23;20023;-75
2021/04/25 04:01:32;;;;;;;52.17;20.35;;;;;;;8.97;78.67;99334.38;6244095;23;20426;-76
2021/04/25 04:03:57;;;;;;;49.58;19.70;;;;;;;8.94;79.04;99333.03;6243892;23;20434;-76
2021/04/25 04:06:23;;;;;;;46.63;17.15;;;;;;;9.01;79.01;99340.00;6217311;23;20321;-76
2021/04/25 04:08:49;;;;;;;49.80;20.20;;;;;;;8.98;79.22;99346.66;6243854;23;19996;-75
2021/04/25 04:11:14;;;;;;;44.42;20.08;;;;;;;9.02;78.88;99347.78;6243650;23;20436;-75
2021/04/25 04:13:40;;;;;;;48.75;19.05;;;;;;;9.03;78.90;99341.34;6243603;23;20000;-76
2021/04/25 04:16:05;;;;;;;31.30;16.73;;;;;;;9.06;78.51;99346.19;6242969;23;20000;-76
2021/04/25 04:18:31;;;;;;;46.58;19.17;;;;;;;9.09;78.63;99345.69;6243216;23;20114;-76
2021/04/25 04:20:56;;;;;;;39.42;17.00;;;;;;;9.13;78.26;99346.75;6243144;23;20460;-76
2021/04/25 04:23:22;;;;;;;45.13;18.80;;;;;;;9.13;78.56;99354.78;6242781;23;20487;-76
2021/04/25 04:25:48;;;;;;;54.03;22.92;;;;;;;9.12;77.96;99357.69;6242981;23;20008;-74
2021/04/25 04:28:13;;;;;;;59.75;20.75;;;;;;;9.03;78.62;99349.34;6243231;23;19996;-75
2021/04/25 04:30:39;;;;;;;53.35;21.13;;;;;;;9.01;78.77;99354.16;6244791;23;20007;-75
2021/04/25 04:33:04;;;;;;;51.38;20.13;;;;;;;9.00;78.22;99365.09;6245261;23;20440;-75
2021/04/25 04:35:30;;;;;;;50.42;17.88;;;;;;;8.90;78.21;99357.81;6246485;23;20303;-76
2021/04/25 04:37:55;;;;;;;49.55;16.88;;;;;;;8.84;78.47;99354.31;6248971;23;20075;-75
2021/04/25 04:40:21;;;;;;;33.85;17.30;;;;;;;8.80;79.04;99361.22;6245781;23;20565;-74
2021/04/25 04:42:47;;;;;;;38.95;17.02;;;;;;;8.76;79.44;99360.94;6244821;23;20000;-75
2021/04/25 04:45:13;;;;;;;45.15;17.73;;;;;;;8.73;79.11;99360.66;6245107;23;20004;-75
2021/04/25 04:47:44;;;;;;;39.20;18.08;;;;;;;8.73;79.39;99366.00;6245820;23;20000;-75
2021/04/25 04:50:10;;;;;;;49.65;20.63;;;;;;;8.69;79.78;99373.69;6245012;23;20004;-77
2021/04/25 04:52:35;;;;;;;52.17;21.30;;;;;;;8.72;79.34;99359.03;6244702;23;20592;-77
2021/04/25 04:55:01;;;;;;;55.65;21.42;;;;;;;8.74;79.95;99363.06;6246441;23;20038;-77
2021/04/25 04:57:27;;;;;;;54.97;22.88;;;;;;;8.80;79.29;99371.88;6245813;23;20018;-77
2021/04/25 04:59:52;;;;;;;61.45;21.42;;;;;;;8.84;79.07;99359.66;6245610;23;20019;-76
2021/04/25 05:02:18;;;;;;;67.65;25.33;;;;;;;8.89;79.19;99362.34;6244851;23;19996;-74
2021/04/25 05:04:43;;;;;;;71.50;25.23;;;;;;;8.91;78.78;99354.91;6244888;23;20004;-75
2021/04/25 05:07:09;;;;;;;53.67;21.38;;;;;;;8.99;78.61;99364.28;6243210;23;20434;-75
2021/04/25 05:09:34;;;;;;;39.30;19.52;;;;;;;9.08;78.04;99368.09;6244013;23;20003;-72
2021/04/25 05:11:59;;;;;;;49.95;19.20;;;;;;;9.15;78.05;99364.38;6244376;23;20416;-73
2021/04/25 05:14:25;;;;;;;48.25;20.13;;;;;;;9.18;77.47;99362.00;6242674;23;20015;-75
2021/04/25 05:16:50;;;;;;;59.10;20.77;;;;;;;9.25;77.60;99359.91;6244153;23;20006;-77
2021/04/25 05:19:16;;;;;;;48.40;19.20;;;;;;;9.34;76.49;99359.38;6244073;23;19996;-76
2021/04/25 05:21:42;;;;;;;39.90;17.30;;;;;;;9.37;76.79;99361.56;6217208;23;20011;-76
2021/04/25 05:24:08;;;;;;;45.10;18.00;;;;;;;9.39;76.63;99367.44;6244654;23;20001;-76
2021/04/25 05:26:34;;;;;;;40.15;16.25;;;;;;;9.39;75.82;99354.88;6244058;23;19996;-76
2021/04/25 05:28:59;;;;;;;39.00;16.52;;;;;;;9.41;76.13;99363.44;6244618;23;20007;-75
2021/04/25 05:31:25;;;;;;;44.53;17.63;;;;;;;9.45;75.83;99366.41;6242096;23;20383;-75
2021/04/25 05:33:50;;;;;;;52.03;19.67;;;;;;;9.46;75.79;99357.34;6244145;23;20071;-74
2021/04/25 05:36:16;;;;;;;46.92;18.92;;;;;;;9.53;75.30;99360.56;6244401;23;20486;-75
2021/04/25 05:38:41;;;;;;;47.45;19.35;;;;;;;9.55;75.66;99355.75;6242595;23;20008;-74
2021/04/25 05:41:06;;;;;;;45.00;18.65;;;;;;;9.55;75.35;99352.28;6243480;23;20000;-75
2021/04/25 05:43:32;;;;;;;38.58;16.40;;;;;;;9.63;75.40;99359.81;6243901;23;20440;-76
2021/04/25 05:45:57;;;;;;;34.15;16.42;;;;;;;9.64;74.88;99364.06;6244447;23;20329;-77
2021/04/25 05:48:23;;;;;;;31.05;15.05;;;;;;;9.71;74.39;99356.59;6217099;23;20004;-76
2021/04/25 05:50:48;;;;;;;29.50;14.52;;;;;;;9.72;73.85;99357.44;6241940;23;20004;-75
2021/04/25 05:53:14;;;;;;;27.50;13.50;;;;;;;9.69;73.61;99361.44;6241576;23;20004;-73
2021/04/25 05:55:39;;;;;;;31.77;16.27;;;;;;;9.75;74.12;99368.38;6242369;23;20376;-79
2021/04/25 05:58:05;;;;;;;30.70;14.48;;;;;;;9.80;74.53;99367.56;6215638;23;20053;-78
2021/04/25 06:00:33;;;;;;;39.88;16.58;;;;;;;9.96;74.65;99363.09;6215791;23;20003;-77
2021/04/25 06:02:59;;;;;;;39.65;17.48;;;;;;;10.08;73.32;99360.16;6216057;23;20000;-78
2021/04/25 06:05:24;;;;;;;27.45;13.80;;;;;;;10.13;72.50;99370.06;6215726;23;20555;-77
2021/04/25 06:07:51;;;;;;;36.83;13.82;;;;;;;10.16;72.26;99377.56;6242949;23;20075;-78
2021/04/25 06:10:18;;;;;;;18.98;9.98;;;;;;;10.11;71.66;99362.31;6215700;23;20008;-77
2021/04/25 06:12:47;;;;;;;22.27;10.70;;;;;;;10.17;71.91;99371.16;6215685;23;20000;-79
2021/04/25 06:15:14;;;;;;;17.00;9.38;;;;;;;10.19;72.76;99372.50;6215690;23;20000;-85
2021/04/25 06:17:39;;;;;;;16.40;8.93;;;;;;;10.15;72.77;99368.72;6215353;23;20008;-78
2021/04/25 06:20:06;;;;;;;13.20;8.10;;;;;;;10.23;71.23;99364.75;6215584;23;20092;-77
2021/04/25 06:22:32;;;;;;;12.93;8.32;;;;;;;10.26;71.70;99369.56;6215556;23;20235;-77
2021/04/25 06:24:57;;;;;;;11.32;7.45;;;;;;;10.32;71.53;99379.19;6215808;23;20028;-77
2021/04/25 06:27:24;;;;;;;12.75;7.70;;;;;;;10.43;72.02;99368.53;6215360;23;20083;-79
2021/04/25 06:29:50;;;;;;;14.27;8.20;;;;;;;10.48;71.20;99368.53;6215453;23;19996;-79
2021/04/25 06:32:15;;;;;;;13.15;8.52;;;;;;;10.56;70.78;99365.34;6215750;23;20323;-79
2021/04/25 06:34:40;;;;;;;12.20;6.90;;;;;;;10.61;70.45;99369.84;6240610;23;20004;-75
2021/04/25 06:37:06;;;;;;;18.08;8.35;;;;;;;10.59;70.01;99370.13;6240737;23;20470;-73
2021/04/25 06:39:31;;;;;;;14.23;7.40;;;;;;;10.63;69.73;99370.41;6242443;23;20008;-74
2021/04/25 06:41:57;;;;;;;15.50;7.65;;;;;;;10.74;70.67;99372.00;6215257;23;20006;-84
2021/04/25 06:44:22;;;;;;;10.20;6.53;;;;;;;10.84;70.29;99374.69;6215504;23;20062;-78
2021/04/25 06:46:48;;;;;;;47.47;17.63;;;;;;;10.84;67.06;99377.34;6215799;23;20484;-80
2021/04/25 06:49:13;;;;;;;49.75;21.25;;;;;;;10.80;67.28;99381.66;6242377;23;20011;-79
2021/04/25 06:51:38;;;;;;;51.80;23.15;;;;;;;10.77;67.10;99381.38;6242363;23;20709;-79
2021/04/25 06:54:07;;;;;;;41.17;19.52;;;;;;;10.63;64.92;99381.91;6242236;23;20011;-87
2021/04/25 06:56:33;;;;;;;44.30;21.65;;;;;;;10.70;65.39;99382.44;6191606;23;20019;-86
2021/04/25 06:58:58;;;;;;;41.25;19.20;;;;;;;10.65;65.30;99379.75;6216426;23;20333;-81
2021/04/25 07:01:24;;;;;;;45.42;20.83;;;;;;;10.70;66.05;99382.44;6216040;23;20003;-80
2021/04/25 07:03:50;;;;;;;36.90;18.17;;;;;;;10.78;65.68;99391.00;6241276;23;20010;-79
2021/04/25 07:06:17;;;;;;;41.75;21.55;;;;;;;10.78;65.66;99375.75;6243383;23;20003;-80
2021/04/25 07:08:42;;;;;;;46.53;21.17;;;;;;;10.82;64.34;99379.47;6212765;23;20095;-80
2021/04/25 07:11:07;;;;;;;46.55;22.38;;;;;;;10.92;64.45;99381.34;6238910;23;20004;-84
2021/04/25 07:13:33;;;;;;;46.90;21.33;;;;;;;11.08;64.56;99382.13;6214075;23;20433;-78
2021/04/25 07:15:58;;;;;;;49.42;22.65;;;;;;;11.14;63.15;99373.00;6240142;23;20091;-76
2021/04/25 07:18:24;;;;;;;38.60;20.42;;;;;;;11.34;63.60;99376.72;6239538;23;20000;-78
2021/04/25 07:20:52;;;;;;;39.53;22.02;;;;;;;11.48;63.11;99374.25;6241371;23;20007;-82
2021/04/25 07:23:19;;;;;;;39.30;21.52;;;;;;;11.66;61.72;99373.63;6214863;23;20509;-78
2021/04/25 07:25:45;;;;;;;39.67;22.27;;;;;;;11.86;61.35;99369.25;6240199;23;20008;-82
2021/04/25 07:28:10;;;;;;;45.22;23.30;;;;;;;12.03;61.02;99374.28;6215103;23;20318;-80
2021/04/25 07:30:36;;;;;;;39.38;20.33;;;;;;;12.09;58.85;99370.50;6240543;23;20001;-82
2021/04/25 07:33:01;;;;;;;33.88;19.63;;;;;;;12.16;58.96;99372.88;6241625;23;20004;-89
2021/04/25 07:35:28;;;;;;;28.00;17.23;;;;;;;12.17;59.34;99366.44;6215155;23;20333;-82
2021/04/25 07:37:53;;;;;;;15.57;11.65;;;;;;;12.22;58.79;99373.63;6216605;23;20004;-86
2021/04/25 07:40:19;;;;;;;26.33;15.15;;;;;;;12.25;57.16;99381.91;6216670;23;20000;-79
2021/04/25 07:42:45;;;;;;;22.65;16.55;;;;;;;12.11;58.00;99375.59;6243173;23;20035;-76
2021/04/25 07:45:12;;;;;;;26.55;18.40;;;;;;;12.06;58.34;99378.28;6215833;23;20004;-75
2021/04/25 07:47:41;;;;;;;23.90;17.10;;;;;;;12.05;57.01;99374.00;6242691;23;20075;-82
2021/04/25 07:50:08;;;;;;;20.15;15.10;;;;;;;12.07;57.34;99379.91;6241281;23;20008;-76
2021/04/25 07:52:34;;;;;;;27.80;16.55;;;;;;;12.13;57.23;99379.59;6242991;23;20508;-76
2021/04/25 07:55:00;;;;;;;21.50;13.45;;;;;;;12.05;56.64;99379.34;6242532;23;20000;-76
2021/04/25 07:57:26;;;;;;;25.95;16.65;;;;;;;12.08;57.11;99366.22;6242747;23;20385;-75
2021/04/25 07:59:51;;;;;;;24.20;16.13;;;;;;;12.17;56.41;99366.44;6242681;23;20086;-75
2021/04/25 08:02:17;;;;;;;18.20;12.25;;;;;;;12.28;56.35;99367.97;6243250;23;20046;-76
2021/04/25 08:04:42;;;;;;;16.52;11.75;;;;;;;12.33;56.62;99359.09;6244207;23;20004;-75
2021/04/25 08:07:08;;;;;;;22.58;14.15;;;;;;;12.50;56.88;99358.69;6244925;23;19996;-75
2021/04/25 08:09:33;;;;;;;16.98;9.45;;;;;;;12.42;54.38;99361.97;6245027;23;20003;-76
2021/04/25 08:11:58;;;;;;;15.30;10.40;;;;;;;12.46;54.79;99363.00;6245270;23;20007;-75
2021/04/25 08:14:24;;;;;;;16.92;11.50;;;;;;;12.46;54.88;99360.31;6244853;23;19996;-76
2021/04/25 08:16:49;;;;;;;13.85;10.73;;;;;;;12.57;55.72;99363.72;6244911;23;19996;-76
2021/04/25 08:19:15;;;;;;;20.95;13.90;;;;;;;12.61;55.48;99360.19;6244929;23;20000;-75
2021/04/25 08:21:41;;;;;;;18.50;13.73;;;;;;;12.76;55.12;99359.25;6244620;23;20027;-76
2021/04/25 08:24:07;;;;;;;14.70;11.65;;;;;;;12.82;54.92;99352.75;6245146;23;20410;-76
2021/04/25 08:26:32;;;;;;;16.65;10.10;;;;;;;12.92;53.04;99351.06;6217759;23;20000;-76
2021/04/25 08:28:58;;;;;;;12.73;8.48;;;;;;;12.88;54.29;99345.47;6243433;23;20004;-75
2021/04/25 08:31:24;;;;;;;12.13;8.77;;;;;;;12.91;54.45;99347.56;6244482;23;20326;-77
2021/04/25 08:33:49;;;;;;;11.15;8.23;;;;;;;12.96;54.76;99338.66;6244689;23;20000;-76
2021/04/25 08:36:15;;;;;;;14.73;8.95;;;;;;;13.02;53.15;99344.78;6244875;23;20086;-76
2021/04/25 08:38:42;;;;;;;11.93;9.13;;;;;;;13.01;53.13;99335.94;6244309;23;20007;-76
2021/04/25 08:41:11;;;;;;;11.73;8.90;;;;;;;13.03;51.37;99324.91;6244082;23;20159;-76
2021/04/25 08:43:41;;;;;;;14.35;9.13;;;;;;;13.09;53.21;99324.56;6217724;23;20003;-76
2021/04/25 08:46:08;;;;;;;11.27;8.57;;;;;;;13.20;52.80;99327.94;6244820;23;20004;-75
2021/04/25 08:48:35;;;;;;;13.68;8.35;;;;;;;13.20;52.95;99316.41;6244623;23;20401;-75
2021/04/25 08:51:01;;;;;;;11.15;7.72;;;;;;;13.23;53.79;99316.63;6244923;23;20000;-75
2021/04/25 08:53:27;;;;;;;10.85;8.10;;;;;;;13.29;53.81;99317.34;6244137;23;20000;-76
2021/04/25 08:55:52;;;;;;;12.02;8.50;;;;;;;13.33;52.85;99310.34;6244785;23;20006;-76
2021/04/25 08:58:20;;;;;;;15.07;9.15;;;;;;;13.37;53.66;99305.19;6217433;23;20091;-75
2021/04/25 09:00:47;;;;;;;15.73;9.45;;;;;;;13.41;53.25;99307.03;6244029;23;20004;-75
2021/04/25 09:03:15;;;;;;;9.02;8.13;;;;;;;13.47;52.72;99306.97;6244331;23;20391;-74
2021/04/25 09:05:43;;;;;;;8.68;7.03;;;;;;;13.43;51.70;99296.78;6242783;23;20008;-74
2021/04/25 09:08:09;;;;;;;6.72;5.20;;;;;;;13.38;50.75;99298.75;6244402;23;20023;-74
2021/04/25 09:10:40;;;;;;;5.75;4.80;;;;;;;13.36;51.16;99290.94;6243965;23;19996;-76
2021/04/25 09:13:24;;;;;;;7.15;4.82;;;;;;;13.35;52.18;99288.56;6244764;23;19996;-75
2021/04/25 09:15:55;;;;;;;5.47;3.97;;;;;;;13.36;50.46;99293.63;6243731;23;19996;-75
2021/04/25 09:18:34;;;;;;;4.57;3.30;;;;;;;13.32;50.78;99299.84;6243056;23;20337;-76
2021/04/25 09:21:11;;;;;;;4.80;3.75;;;;;;;13.35;50.92;99285.88;6244373;23;20445;-76
2021/04/25 09:23:37;;;;;;;4.40;3.67;;;;;;;13.41;48.44;99282.84;6244267;23;19997;-74
2021/04/25 09:26:05;;;;;;;3.95;3.55;;;;;;;13.42;48.20;99276.38;6244276;23;20004;-76
2021/04/25 09:28:32;;;;;;;5.03;3.95;;;;;;;13.53;48.30;99279.75;6217274;23;20000;-75
2021/04/25 09:31:09;;;;;;;4.00;3.42;;;;;;;13.68;50.40;99273.34;6244185;23;20034;-75
2021/04/25 09:33:47;;;;;;;5.70;3.72;;;;;;;13.80;46.17;99272.91;6244011;23;20027;-77
2021/04/25 09:36:16;;;;;;;8.50;4.70;;;;;;;13.92;45.40;99267.88;6244085;23;20413;-77
2021/04/25 09:38:41;;;;;;;3.92;2.92;;;;;;;14.07;47.26;99255.28;6216848;23;20015;-77
2021/04/25 09:41:07;;;;;;;7.28;3.38;;;;;;;14.31;47.81;99252.47;6244223;23;20000;-77
2021/04/25 09:43:39;;;;;;;5.20;2.97;;;;;;;14.49;46.29;99245.44;6244144;23;20007;-75
2021/04/25 09:46:05;;;;;;;4.15;2.92;;;;;;;14.54;44.56;99258.00;6244372;23;20016;-75
2021/04/25 09:48:35;;;;;;;6.20;2.78;;;;;;;14.60;42.02;99258.69;6244070;23;20008;-76
2021/04/25 09:51:25;;;;;;;2.83;2.63;;;;;;;14.67;44.03;99243.81;6244176;23;20000;-77
2021/04/25 09:53:53;;;;;;;7.00;3.53;;;;;;;14.84;42.90;99247.78;6243545;23;20419;-76
2021/04/25 09:56:24;;;;;;;6.80;4.10;;;;;;;14.83;42.92;99241.59;6242144;23;20000;-76
2021/04/25 09:59:09;;;;;;;3.72;3.10;;;;;;;14.85;41.85;99244.78;6242976;23;20035;-76
2021/04/25 10:01:40;;;;;;;3.97;2.70;;;;;;;14.83;40.47;99243.50;6215817;23;20004;-76
2021/04/25 10:04:27;;;;;;;4.32;2.55;;;;;;;14.86;43.25;99224.84;6242452;23;20004;-77
2021/04/25 10:06:55;;;;;;;6.55;3.15;;;;;;;14.87;41.60;99237.22;6217383;23;20018;-76
2021/04/25 10:09:21;;;;;;;5.35;3.00;;;;;;;14.76;41.26;99221.53;6243812;23;20341;-76
2021/04/25 10:11:52;;;;;;;3.00;2.47;;;;;;;14.78;40.51;99230.94;6243711;23;20005;-76
2021/04/25 10:14:19;;;;;;;8.77;3.30;;;;;;;14.75;40.79;99222.66;6244147;23;20000;-76
2021/04/25 10:16:45;;;;;;;5.30;3.28;;;;;;;14.71;40.21;99219.78;6243984;23;20079;-76
2021/04/25 10:19:11;;;;;;;3.35;2.53;;;;;;;14.70;40.74;99223.56;6244039;23;20078;-77
2021/04/25 10:21:38;;;;;;;8.30;3.00;;;;;;;14.77;42.59;99220.47;6216518;23;20004;-76
2021/04/25 10:24:05;;;;;;;9.35;3.72;;;;;;;14.84;42.77;99213.59;6243719;23;20329;-77
2021/04/25 10:26:39;;;;;;;4.55;3.35;;;;;;;14.88;40.72;99219.97;6243402;23;20008;-77
2021/04/25 10:29:09;;;;;;;3.42;2.70;;;;;;;14.79;38.57;99215.56;6243354;23;20069;-77
2021/04/25 10:31:36;;;;;;;4.53;2.38;;;;;;;14.79;39.93;99205.59;6243083;23;20096;-76
2021/04/25 10:34:07;;;;;;;5.18;2.47;;;;;;;14.79;38.60;99205.59;6243914;23;20180;-77
2021/04/25 10:36:45;;;;;;;3.40;2.22;;;;;;;14.84;39.67;99204.69;6243550;23;20004;-75
2021/04/25 10:39:33;;;;;;;4.22;2.67;;;;;;;14.83;39.50;99201.22;6242304;23;20000;-76
2021/04/25 10:42:17;;;;;;;;;;;;;;;14.92;41.09;99197.84;6244050;23;20035;-77
2021/04/25 10:45:04;;;;;;;2.33;1.65;;;;;;;15.08;41.08;99188.31;6243525;23;20245;-76
2021/04/25 10:47:39;;;;;;;1.98;1.77;;;;;;;15.16;42.83;99186.78;6222599;23;20031;-76
2021/04/25 10:50:17;;;;;;;1.77;1.63;;;;;;;15.23;42.24;99183.69;6243502;23;20008;-76
2021/04/25 10:52:45;;;;;;;3.83;3.13;;;;;;;15.27;41.95;99166.63;6243136;23;20034;-76
2021/04/25 10:55:14;;;;;;;4.45;1.95;;;;;;;15.44;41.99;99176.75;6243731;23;20047;-75
2021/04/25 11:00:39;;;;;;;1.70;1.60;;;;;;;15.55;40.57;99171.94;6243687;23;20440;-76
2021/04/25 11:03:10;;;;;;;3.75;2.25;;;;;;;15.51;40.28;99168.22;6243380;23;20007;-76
2021/04/25 11:05:39;;;;;;;2.08;1.88;;;;;;;15.54;39.04;99178.41;6243378;23;20078;-76
2021/04/25 11:08:26;;;;;;;3.38;2.05;;;;;;;15.50;38.71;99167.44;6243631;23;20001;-76
2021/04/25 11:10:54;;;;;;;4.20;2.35;;;;;;;15.54;40.07;99162.25;6242641;23;20022;-76
2021/04/25 11:16:26;;;;;;;6.07;4.10;;;;;;;15.57;39.81;99171.63;6243422;23;20310;-76
2021/04/25 11:19:09;;;;;;;4.20;2.55;;;;;;;15.66;38.38;99175.16;6243194;23;20000;-76
2021/04/25 11:21:46;;;;;;;5.32;1.80;;;;;;;15.54;38.92;99173.03;6243007;23;20371;-76
2021/04/25 11:24:12;;;;;;;2.95;1.80;;;;;;;15.56;41.14;99172.72;6241818;23;20372;-77
2021/04/25 11:26:40;;;;;;;4.25;1.98;;;;;;;15.57;38.68;99175.09;6242374;23;20279;-77
2021/04/25 11:29:25;;;;;;;2.20;1.60;;;;;;;15.57;37.44;99175.09;6243513;23;20368;-76
2021/04/25 11:31:56;;;;;;;2.08;1.27;;;;;;;15.51;38.34;99165.53;6243134;23;20333;-76